Terminal Aerodrome Forecast
Issued by NWS

Home | Current Version | Previous Version | Text Only | Print | Product List | Glossary On
Versions: 1 2 3 4 5 6 7 8 9 10 11 12 13
000
FTUS45 KABQ 012300
TAFTCC
TAF
KTCC 012320Z 0200/0224 18008KT P6SM SKC
     FM020200 26008KT P6SM SKC
     FM020600 35007KT P6SM SCT050
     FM021200 02008KT P6SM SCT015
     FM021600 06006KT P6SM FEW060
     FM021900 17007KT P6SM FEW090=

USA.gov is the U.S. government's official web portal to all federal, state and local government web resources and services.